createdAt,value
2022-09-14T03:46:14.406Z,99747.56
2022-09-14T03:49:17.295Z,99747.56
2022-09-14T03:52:19.928Z,99756.28
2022-09-14T03:55:22.701Z,99754.12
2022-09-14T03:58:25.742Z,99748.00
2022-09-14T04:01:28.453Z,99758.47
2022-09-14T04:04:31.278Z,99760.09
2022-09-14T04:07:33.773Z,99758.44
2022-09-14T04:10:39.215Z,99759.25
2022-09-14T04:13:42.356Z,99758.28
2022-09-14T04:16:45.044Z,99749.16
2022-09-14T04:19:47.420Z,99749.87
2022-09-14T04:22:50.000Z,99744.25
2022-09-14T04:25:53.506Z,99733.28
2022-09-14T04:28:56.762Z,99731.38
2022-09-14T04:31:59.286Z,99723.09
2022-09-14T04:35:01.808Z,99729.53
2022-09-14T04:38:04.761Z,99722.84
2022-09-14T04:41:09.881Z,99720.66
2022-09-14T04:44:12.383Z,99727.50
2022-09-14T04:47:14.951Z,99726.78
2022-09-14T04:50:17.342Z,99725.88
2022-09-14T04:53:19.951Z,99717.50
2022-09-14T04:56:24.397Z,99713.00
2022-09-14T04:59:27.155Z,99702.03
2022-09-14T05:02:30.938Z,99702.75
2022-09-14T05:05:35.657Z,99710.03
2022-09-14T05:08:38.698Z,99714.25
2022-09-14T05:11:42.145Z,99710.38
2022-09-14T05:14:44.429Z,99714.69
2022-09-14T05:17:47.193Z,99720.31
2022-09-14T05:20:49.672Z,99720.19
2022-09-14T05:23:57.166Z,99729.38
2022-09-14T05:27:01.090Z,99725.38
2022-09-14T05:30:05.605Z,99728.91
2022-09-14T05:33:08.029Z,99733.69
2022-09-14T05:36:11.058Z,99723.81
2022-09-14T05:39:13.829Z,99693.72
2022-09-14T05:42:16.531Z,99687.31
2022-09-14T05:45:19.252Z,99698.81
2022-09-14T05:48:22.022Z,99703.78
2022-09-14T05:51:26.286Z,99711.13
2022-09-14T05:54:29.306Z,99704.97
2022-09-14T05:57:31.959Z,99715.44
2022-09-14T06:00:34.986Z,99717.91
2022-09-14T06:03:38.826Z,99733.16
2022-09-14T06:06:46.915Z,99723.59
2022-09-14T06:09:58.849Z,99722.75
2022-09-14T06:13:01.123Z,99718.66
2022-09-14T06:16:06.323Z,99712.75
2022-09-14T06:19:09.169Z,99710.03
2022-09-14T06:22:11.712Z,99696.81
2022-09-14T06:25:18.071Z,99706.16
2022-09-14T06:28:20.947Z,99708.31
2022-09-14T06:31:25.207Z,99710.28
2022-09-14T06:34:27.876Z,99715.28
2022-09-14T06:37:30.216Z,99703.00
2022-09-14T06:40:32.909Z,99707.03
2022-09-14T06:43:38.973Z,99724.75
2022-09-14T06:46:45.677Z,99734.31
2022-09-14T06:49:51.041Z,99741.00
2022-09-14T06:52:53.649Z,99754.25
2022-09-14T06:55:59.061Z,99754.09
2022-09-14T06:59:02.563Z,99741.37
2022-09-14T07:02:04.895Z,99735.72
2022-09-14T07:05:08.140Z,99728.88
2022-09-14T07:08:12.461Z,99722.69
2022-09-14T07:11:17.582Z,99722.69
2022-09-14T07:14:20.148Z,99717.75
2022-09-14T07:17:22.855Z,99706.25
2022-09-14T07:20:25.445Z,99700.78
2022-09-14T07:23:28.395Z,99718.28
2022-09-14T07:26:33.850Z,99724.47
2022-09-14T07:29:36.455Z,99730.75
2022-09-14T07:32:38.902Z,99729.25
2022-09-14T07:35:42.018Z,99728.50
2022-09-14T07:38:53.444Z,99725.03
2022-09-14T07:41:56.261Z,99716.91
2022-09-14T07:44:58.725Z,99723.09
2022-09-14T07:48:01.569Z,99725.00
2022-09-14T07:51:07.496Z,99714.94
2022-09-14T07:54:13.478Z,99719.87
2022-09-14T07:57:17.029Z,99715.53
2022-09-14T08:00:21.928Z,99707.59
2022-09-14T08:03:24.057Z,99718.37
2022-09-14T08:06:26.336Z,99721.72
2022-09-14T08:09:29.420Z,99712.37
2022-09-14T08:12:31.715Z,99705.81
2022-09-14T08:15:33.926Z,99678.34
2022-09-14T08:18:36.661Z,99667.03
2022-09-14T08:21:44.161Z,99683.50
2022-09-14T08:24:49.081Z,99695.34
2022-09-14T08:27:51.343Z,99683.34
2022-09-14T08:30:53.549Z,99693.28
2022-09-14T08:34:01.021Z,99698.63
2022-09-14T08:37:03.334Z,99682.81
2022-09-14T08:40:06.064Z,99682.81
2022-09-14T08:43:13.052Z,99685.59
2022-09-14T08:46:38.455Z,99682.25
2022-09-14T08:50:00.009Z,99675.38
2022-09-14T08:53:02.479Z,99684.47
2022-09-14T08:56:13.218Z,99678.94
2022-09-14T08:59:36.156Z,99670.75
2022-09-14T09:02:53.572Z,99673.81
2022-09-14T09:06:15.154Z,99656.41
2022-09-14T09:09:31.440Z,99666.47
2022-09-14T09:12:38.612Z,99672.84
2022-09-14T09:15:53.078Z,99661.75
2022-09-14T09:19:07.640Z,99664.97
2022-09-14T09:22:16.765Z,99667.66
2022-09-14T09:25:27.166Z,99672.78
2022-09-14T09:28:31.179Z,99690.88
2022-09-14T09:31:39.998Z,99696.66
2022-09-14T09:34:44.577Z,99701.34
2022-09-14T09:37:47.604Z,99704.75
2022-09-14T09:41:11.847Z,99711.31
2022-09-14T09:44:15.244Z,99717.34
2022-09-14T09:47:30.358Z,99716.34
2022-09-14T09:50:33.176Z,99711.16
2022-09-14T09:53:37.667Z,99698.38
2022-09-14T09:57:07.504Z,99703.37
2022-09-14T10:00:13.541Z,99706.03
2022-09-14T10:03:28.585Z,99710.19
2022-09-14T10:06:32.136Z,99703.84
2022-09-14T10:09:36.455Z,99698.66
2022-09-14T10:12:45.957Z,99711.34
2022-09-14T10:15:50.035Z,99725.09
2022-09-14T10:18:54.324Z,99728.53
2022-09-14T10:22:20.034Z,99739.50
2022-09-14T10:25:28.007Z,99718.66
2022-09-14T10:28:33.821Z,99717.31
2022-09-14T10:31:44.758Z,99706.66
2022-09-14T10:34:48.134Z,99700.00
2022-09-14T10:38:02.909Z,99691.84
2022-09-14T10:41:16.968Z,99689.34
2022-09-14T10:44:51.694Z,99688.66
2022-09-14T10:48:31.020Z,99690.00
2022-09-14T10:52:23.108Z,99684.16
2022-09-14T10:55:47.038Z,99692.62
2022-09-14T10:59:16.875Z,99697.09
2022-09-14T11:02:37.355Z,99697.38
2022-09-14T11:05:53.182Z,99695.94
2022-09-14T11:08:58.847Z,99701.09
2022-09-14T11:12:06.757Z,99702.63
2022-09-14T11:15:28.862Z,99697.28
2022-09-14T11:18:34.294Z,99692.97
2022-09-14T11:21:57.104Z,99683.28
2022-09-14T11:25:08.896Z,99678.50
2022-09-14T11:28:38.177Z,99676.16
2022-09-14T11:32:21.061Z,99667.66
2022-09-14T11:35:32.738Z,99670.47
2022-09-14T11:38:42.473Z,99669.59
2022-09-14T11:42:02.983Z,99674.97
2022-09-14T11:45:15.644Z,99661.28
2022-09-14T11:48:44.039Z,99650.75
2022-09-14T11:51:55.065Z,99642.22
2022-09-14T11:54:59.777Z,99629.88
2022-09-14T11:58:06.290Z,99643.91
2022-09-14T12:01:39.198Z,99640.88
2022-09-14T12:05:04.463Z,99642.34
2022-09-14T12:08:31.593Z,99641.47
2022-09-14T12:11:36.047Z,99640.81
2022-09-14T12:14:42.535Z,99636.44
2022-09-14T12:17:45.746Z,99631.38
2022-09-14T12:20:52.887Z,99628.63
2022-09-14T12:23:57.885Z,99626.31
2022-09-14T12:27:19.011Z,99620.31
2022-09-14T12:30:40.887Z,99618.63
2022-09-14T12:33:46.064Z,99615.03
2022-09-14T12:36:48.583Z,99606.53
2022-09-14T12:40:22.141Z,99606.53
2022-09-14T12:43:33.639Z,99597.81
2022-09-14T12:46:38.608Z,99593.47
2022-09-14T12:49:41.446Z,99592.25
2022-09-14T12:53:27.868Z,99584.91
2022-09-14T12:56:33.726Z,99580.59
2022-09-14T12:59:54.757Z,99561.63
2022-09-14T13:03:00.148Z,99561.38
2022-09-14T13:06:03.189Z,99554.22
2022-09-14T13:09:17.760Z,99546.16
2022-09-14T13:12:41.710Z,99548.34
2022-09-14T13:15:54.473Z,99545.84
2022-09-14T13:19:03.189Z,99543.19
2022-09-14T13:22:18.882Z,99552.91
2022-09-14T13:25:29.712Z,99548.78
2022-09-14T13:28:32.983Z,99547.28
2022-09-14T13:31:39.498Z,99552.31
2022-09-14T13:34:42.159Z,99543.59
2022-09-14T13:37:48.188Z,99551.28
2022-09-14T13:40:54.571Z,99545.84
2022-09-14T13:43:58.395Z,99554.81
2022-09-14T13:47:04.638Z,99554.94
2022-09-14T13:50:07.984Z,99554.28
2022-09-14T13:53:43.759Z,99551.16
2022-09-14T13:56:47.058Z,99557.22
2022-09-14T14:00:12.020Z,99540.59
2022-09-14T14:03:29.069Z,99536.44
2022-09-14T14:06:34.956Z,99536.78
2022-09-14T14:09:39.238Z,99538.31
2022-09-14T14:12:42.690Z,99533.94
2022-09-14T14:15:45.396Z,99525.88
2022-09-14T14:18:52.165Z,99521.44
2022-09-14T14:22:13.619Z,99513.78
2022-09-14T14:25:19.875Z,99512.69
2022-09-14T14:28:27.573Z,99510.91
2022-09-14T14:31:29.936Z,99517.62
2022-09-14T14:34:32.552Z,99506.31
2022-09-14T14:37:34.931Z,99507.50
2022-09-14T14:40:40.112Z,99513.16
2022-09-14T14:43:49.959Z,99517.97
2022-09-14T14:46:52.699Z,99499.38
2022-09-14T14:49:55.150Z,99482.28
2022-09-14T14:52:58.519Z,99473.16
2022-09-14T14:56:00.983Z,99480.22
2022-09-14T14:59:04.719Z,99490.22
2022-09-14T15:02:07.092Z,99481.81
2022-09-14T15:05:09.707Z,99485.16
2022-09-14T15:08:14.142Z,99488.31
2022-09-14T15:11:20.786Z,99484.50
2022-09-14T15:14:27.270Z,99472.94
2022-09-14T15:17:32.729Z,99477.53
2022-09-14T15:20:35.872Z,99464.72
2022-09-14T15:23:38.922Z,99471.22
2022-09-14T15:26:41.374Z,99460.19
2022-09-14T15:29:44.437Z,99463.03
2022-09-14T15:32:46.864Z,99449.66
2022-09-14T15:35:55.870Z,99451.72
2022-09-14T15:38:58.367Z,99438.31
2022-09-14T15:42:01.066Z,99430.00
2022-09-14T15:45:04.140Z,99433.97
2022-09-14T15:48:06.771Z,99432.22
2022-09-14T15:51:11.734Z,99421.69
2022-09-14T15:54:14.692Z,99418.91
2022-09-14T15:57:17.009Z,99428.13
2022-09-14T16:00:19.986Z,99424.16
2022-09-14T16:03:22.710Z,99429.63
2022-09-14T16:06:25.466Z,99444.25
2022-09-14T16:09:28.007Z,99454.00
2022-09-14T16:12:30.521Z,99458.53
2022-09-14T16:15:33.149Z,99465.63
2022-09-14T16:18:36.630Z,99472.16
2022-09-14T16:21:40.211Z,99455.53
2022-09-14T16:24:42.621Z,99453.84
2022-09-14T16:27:45.305Z,99464.25
2022-09-14T16:30:48.196Z,99465.75
2022-09-14T16:33:53.175Z,99465.50
2022-09-14T16:36:56.594Z,99459.44
2022-09-14T16:40:00.092Z,99454.09
2022-09-14T16:43:02.461Z,99450.00
2022-09-14T16:46:07.016Z,99435.63
2022-09-14T16:49:10.494Z,99432.97
2022-09-14T16:52:13.081Z,99438.75
2022-09-14T16:55:15.690Z,99431.72
2022-09-14T16:58:18.328Z,99434.97
2022-09-14T17:01:28.797Z,99433.09
2022-09-14T17:04:31.919Z,99425.31
2022-09-14T17:07:34.327Z,99429.03
2022-09-14T17:10:36.963Z,99421.41
2022-09-14T17:13:40.396Z,99420.41
2022-09-14T17:16:43.750Z,99413.09
2022-09-14T17:19:46.723Z,99411.25
2022-09-14T17:22:49.285Z,99407.41
2022-09-14T17:25:52.867Z,99408.06
2022-09-14T17:28:57.502Z,99400.59
2022-09-14T17:32:00.258Z,99394.91
2022-09-14T17:35:03.658Z,99381.41
2022-09-14T17:38:06.041Z,99380.25
2022-09-14T17:41:09.780Z,99376.06
2022-09-14T17:44:14.085Z,99377.25
2022-09-14T17:47:18.511Z,99383.37
2022-09-14T17:50:23.568Z,99373.91
2022-09-14T17:53:26.272Z,99356.41
2022-09-14T17:56:29.895Z,99357.22
2022-09-14T17:59:32.717Z,99365.03
2022-09-14T18:02:35.060Z,99367.16
2022-09-14T18:05:37.903Z,99364.16
2022-09-14T18:08:40.641Z,99371.47
2022-09-14T18:11:43.492Z,99374.97
2022-09-14T18:14:46.610Z,99371.91
2022-09-14T18:17:50.535Z,99379.75
2022-09-14T18:20:52.839Z,99387.69
2022-09-14T18:23:55.720Z,99391.84
2022-09-14T18:26:59.509Z,99400.59
2022-09-14T18:30:02.924Z,99408.75
2022-09-14T18:33:05.532Z,99412.25
2022-09-14T18:36:08.356Z,99400.91
2022-09-14T18:39:12.454Z,99392.78
2022-09-14T18:42:15.496Z,99390.59
2022-09-14T18:45:17.865Z,99379.97
2022-09-14T18:48:20.528Z,99374.09
2022-09-14T18:51:23.003Z,99382.09
2022-09-14T18:54:27.754Z,99383.41
2022-09-14T18:57:30.488Z,99383.84
2022-09-14T19:00:33.351Z,99377.97
2022-09-14T19:03:37.546Z,99367.00
2022-09-14T19:06:41.612Z,99371.38
2022-09-14T19:09:44.900Z,99362.66
2022-09-14T19:12:47.533Z,99378.22
2022-09-14T19:15:49.959Z,99373.91
2022-09-14T19:18:53.214Z,99360.41
2022-09-14T19:21:55.609Z,99353.44
2022-09-14T19:24:58.495Z,99348.97
2022-09-14T19:28:00.923Z,99345.03
2022-09-14T19:31:08.826Z,99350.69
2022-09-14T19:34:11.698Z,99354.88
2022-09-14T19:37:14.627Z,99367.97
2022-09-14T19:40:19.626Z,99365.47
2022-09-14T19:43:42.538Z,99359.09
2022-09-14T19:46:44.991Z,99354.13
2022-09-14T19:49:48.137Z,99348.03
2022-09-14T19:52:50.582Z,99333.41
2022-09-14T19:55:53.466Z,99341.72
2022-09-14T19:58:59.083Z,99351.19
2022-09-14T20:02:02.851Z,99354.16
2022-09-14T20:05:08.229Z,99352.28
2022-09-14T20:08:10.641Z,99347.47
2022-09-14T20:11:17.712Z,99342.31
2022-09-14T20:14:24.022Z,99323.37
2022-09-14T20:17:27.084Z,99325.72
2022-09-14T20:20:29.535Z,99319.91
2022-09-14T20:23:32.391Z,99324.75
2022-09-14T20:26:34.785Z,99314.31
2022-09-14T20:29:37.397Z,99305.69
2022-09-14T20:32:39.796Z,99305.88
2022-09-14T20:35:42.710Z,99306.22
2022-09-14T20:38:56.815Z,99310.06
2022-09-14T20:41:59.490Z,99308.22
2022-09-14T20:45:01.930Z,99298.41
2022-09-14T20:48:05.189Z,99308.09
2022-09-14T20:51:08.055Z,99304.75
2022-09-14T20:54:14.499Z,99307.41
2022-09-14T20:57:17.053Z,99323.53
2022-09-14T21:00:19.973Z,99315.72
2022-09-14T21:03:22.783Z,99317.41
2022-09-14T21:06:26.535Z,99314.09
2022-09-14T21:09:29.164Z,99313.06
2022-09-14T21:12:31.905Z,99317.75
2022-09-14T21:15:37.928Z,99323.06
2022-09-14T21:18:41.423Z,99319.75
2022-09-14T21:21:44.274Z,99321.22
2022-09-14T21:24:47.172Z,99311.31
2022-09-14T21:27:49.480Z,99314.63
2022-09-14T21:30:52.480Z,99325.13
2022-09-14T21:33:58.627Z,99314.44
2022-09-14T21:37:02.026Z,99315.63
2022-09-14T21:40:04.693Z,99313.09
2022-09-14T21:43:07.391Z,99317.97
2022-09-14T21:46:10.978Z,99315.47
2022-09-14T21:49:16.896Z,99310.59
2022-09-14T21:52:19.555Z,99297.22
2022-09-14T21:55:22.407Z,99303.75
2022-09-14T21:58:25.713Z,99305.59
2022-09-14T22:01:29.817Z,99310.75
2022-09-14T22:04:32.842Z,99317.56
2022-09-14T22:07:35.494Z,99309.06
2022-09-14T22:10:38.360Z,99302.28
2022-09-14T22:13:41.266Z,99302.94
2022-09-14T22:16:44.835Z,99298.06
2022-09-14T22:19:48.081Z,99294.41
2022-09-14T22:22:50.862Z,99299.78
2022-09-14T22:25:53.581Z,99310.13
2022-09-14T22:28:58.178Z,99308.41
2022-09-14T22:32:00.827Z,99316.94
2022-09-14T22:35:04.430Z,99323.56
2022-09-14T22:38:08.137Z,99321.06
2022-09-14T22:41:19.559Z,99329.75
2022-09-14T22:44:22.061Z,99324.78
2022-09-14T22:47:25.011Z,99323.44
2022-09-14T22:50:27.522Z,99322.28
2022-09-14T22:53:31.352Z,99315.78
2022-09-14T22:56:36.932Z,99315.31
2022-09-14T22:59:39.705Z,99303.47
2022-09-14T23:02:42.968Z,99306.81
2022-09-14T23:05:50.377Z,99312.97
2022-09-14T23:08:53.117Z,99319.78
2022-09-14T23:11:55.956Z,99320.63
2022-09-14T23:14:58.368Z,99328.75
2022-09-14T23:18:01.533Z,99325.78
2022-09-14T23:21:05.063Z,99320.94
2022-09-14T23:24:10.762Z,99311.12
2022-09-14T23:27:13.761Z,99304.28
2022-09-14T23:30:16.757Z,99303.81
2022-09-14T23:33:19.458Z,99307.81
2022-09-14T23:36:23.349Z,99299.97
2022-09-14T23:39:26.131Z,99301.47
2022-09-14T23:42:29.476Z,99299.31
2022-09-14T23:45:32.281Z,99299.47
2022-09-14T23:48:35.971Z,99295.16
2022-09-14T23:51:39.799Z,99288.81
2022-09-14T23:54:42.882Z,99293.13
2022-09-14T23:57:45.587Z,99289.47
